Time;durP1;ratioP1;P1;durP2;ratioP2;P2;SDS_P1;SDS_P2;PMS_P1;PMS_P2;Temp;Humidity;BMP_temperature;BMP_pressure;BME280_temperature;BME280_humidity;BME280_pressure;Samples;Min_cycle;Max_cycle;Signal;HPM_P1;HPM_P2
2022/11/03 00:01:41;;;;;;;11.75;7.50;;;;;;;9.21;100.00;100484.78;5031733;28;20030;-70
2022/11/03 00:04:09;;;;;;;11.90;6.82;;;;;;;9.14;100.00;100474.31;5020794;28;20034;-69
2022/11/03 00:06:35;;;;;;;16.15;7.82;;;;;;;9.15;100.00;100476.06;5015241;28;20437;-69
2022/11/03 00:09:03;;;;;;;11.30;6.68;;;;;;;9.09;100.00;100484.16;5032725;28;20248;-70
2022/11/03 00:11:32;;;;;;;14.25;7.43;;;;;;;9.07;100.00;100478.00;5032631;28;20022;-69
2022/11/03 00:13:57;;;;;;;13.73;7.18;;;;;;;9.06;100.00;100473.59;5020579;28;20030;-69
2022/11/03 00:16:23;;;;;;;14.20;6.85;;;;;;;9.05;100.00;100482.44;5012714;28;20040;-69
2022/11/03 00:18:49;;;;;;;12.55;6.57;;;;;;;9.03;100.00;100471.84;5012924;28;20030;-69
2022/11/03 00:21:15;;;;;;;11.00;6.03;;;;;;;8.99;100.00;100469.31;5012559;28;20421;-69
2022/11/03 00:23:42;;;;;;;11.18;6.70;;;;;;;8.93;100.00;100461.44;5012627;28;20030;-68
2022/11/03 00:26:11;;;;;;;14.07;7.53;;;;;;;8.89;100.00;100459.75;5016806;28;20079;-67
2022/11/03 00:28:38;;;;;;;11.38;7.05;;;;;;;8.77;100.00;100452.91;5032584;28;20112;-69
2022/11/03 00:31:12;;;;;;;13.48;7.30;;;;;;;8.78;100.00;100464.41;5032349;28;20469;-69
2022/11/03 00:33:39;;;;;;;11.30;7.20;;;;;;;8.74;100.00;100465.34;5033003;28;20086;-69
2022/11/03 00:36:05;;;;;;;10.70;7.03;;;;;;;8.72;100.00;100451.22;5032420;28;20022;-67
2022/11/03 00:38:31;;;;;;;14.00;7.15;;;;;;;8.70;100.00;100453.03;5032331;28;20393;-70
2022/11/03 00:40:59;;;;;;;9.70;6.13;;;;;;;8.71;100.00;100449.50;5032005;28;20022;-69
2022/11/03 00:43:25;;;;;;;8.90;5.82;;;;;;;8.70;100.00;100451.25;5032062;28;20048;-69
2022/11/03 00:45:51;;;;;;;11.77;6.63;;;;;;;8.68;100.00;100450.41;5031995;28;20079;-69
2022/11/03 00:48:29;;;;;;;12.40;6.43;;;;;;;8.69;100.00;100440.69;5025104;28;20536;-67
2022/11/03 00:51:12;;;;;;;10.85;5.72;;;;;;;8.67;100.00;100453.97;5014721;28;20030;-68
2022/11/03 00:53:44;;;;;;;10.23;6.65;;;;;;;8.66;100.00;100448.69;5012423;28;20025;-68
2022/11/03 00:56:16;;;;;;;11.45;6.00;;;;;;;8.64;100.00;100463.75;5011984;28;20112;-69
2022/11/03 00:58:42;;;;;;;14.43;5.75;;;;;;;8.63;100.00;100462.03;5011759;28;20433;-69
2022/11/03 01:01:18;;;;;;;9.68;5.35;;;;;;;8.62;100.00;100474.41;5013371;28;20374;-68
2022/11/03 01:06:48;;;;;;;6.90;4.20;;;;;;;8.50;100.00;100469.28;5011900;28;20448;-69
2022/11/03 01:06:50;;;;;;;7.97;5.00;;;;;;;8.46;100.00;100472.03;5013164;28;20129;-67
2022/11/03 01:09:19;;;;;;;10.25;6.03;;;;;;;8.34;100.00;100462.50;5031704;28;20037;-68
2022/11/03 01:12:05;;;;;;;10.80;6.03;;;;;;;8.44;100.00;100466.75;5031023;28;20053;-68
2022/11/03 01:14:34;;;;;;;11.38;6.03;;;;;;;8.46;100.00;100466.72;5031086;28;20044;-67
2022/11/03 01:17:00;;;;;;;11.13;5.55;;;;;;;8.44;100.00;100455.28;5030958;28;20024;-69
2022/11/03 01:19:26;;;;;;;12.57;6.15;;;;;;;8.41;100.00;100450.03;5030082;28;20043;-67
2022/11/03 01:21:52;;;;;;;10.43;5.53;;;;;;;8.33;100.00;100441.34;5030510;28;20140;-68
2022/11/03 01:24:18;;;;;;;12.65;5.75;;;;;;;8.36;100.00;100449.22;5030587;28;20025;-68
2022/11/03 01:26:43;;;;;;;8.32;5.47;;;;;;;8.35;100.00;100444.84;5030260;28;20116;-69
2022/11/03 01:29:09;;;;;;;8.80;5.28;;;;;;;8.29;100.00;100429.03;5030523;28;20127;-68
2022/11/03 01:31:34;;;;;;;7.93;5.43;;;;;;;8.33;100.00;100430.72;5030262;28;20520;-69
2022/11/03 01:34:00;;;;;;;10.77;5.95;;;;;;;8.31;100.00;100417.50;5030918;28;20021;-69
2022/11/03 01:36:25;;;;;;;11.65;6.10;;;;;;;8.31;100.00;100421.94;5030837;28;20029;-69
2022/11/03 01:38:53;;;;;;;9.18;5.78;;;;;;;8.28;100.00;100421.97;5031052;28;20030;-69
2022/11/03 01:41:22;;;;;;;11.85;6.55;;;;;;;8.27;100.00;100415.78;5030887;28;20047;-68
2022/11/03 01:44:10;;;;;;;11.77;6.75;;;;;;;8.26;100.00;100413.19;5030920;28;20041;-68
2022/11/03 01:46:53;;;;;;;12.63;6.40;;;;;;;8.28;100.00;100416.69;5030602;28;20032;-68
2022/11/03 01:49:44;;;;;;;9.83;5.93;;;;;;;8.27;100.00;100409.66;5031301;28;20121;-68
2022/11/03 01:52:18;;;;;;;11.88;5.97;;;;;;;8.25;100.00;100407.03;5031076;28;20263;-68
2022/11/03 01:54:48;;;;;;;9.77;5.82;;;;;;;8.24;100.00;100404.41;5030729;28;20114;-68
2022/11/03 01:57:20;;;;;;;11.60;5.93;;;;;;;8.24;100.00;100392.00;5030696;28;20137;-68
2022/11/03 01:59:47;;;;;;;10.43;5.65;;;;;;;8.25;100.00;100400.84;5031048;28;20068;-68
2022/11/03 02:02:12;;;;;;;11.45;5.88;;;;;;;8.24;100.00;100399.97;5032011;23;20061;-76
2022/11/03 02:04:38;;;;;;;10.80;5.80;;;;;;;8.26;100.00;100398.16;5002140;28;20026;-77
2022/11/03 02:07:15;;;;;;;9.38;5.18;;;;;;;8.26;100.00;100399.94;5001600;28;20026;-76
2022/11/03 02:09:44;;;;;;;10.88;6.10;;;;;;;8.15;100.00;100383.31;4983452;28;20100;-77
2022/11/03 02:12:10;;;;;;;8.63;5.70;;;;;;;8.14;100.00;100377.13;5002628;28;20057;-77
2022/11/03 02:14:52;;;;;;;8.80;5.57;;;;;;;7.90;100.00;100322.81;4968794;28;20027;-77
2022/11/03 02:17:21;;;;;;;9.65;5.25;;;;;;;7.92;100.00;100317.50;4981600;28;20022;-76
2022/11/03 02:19:50;;;;;;;11.48;6.03;;;;;;;8.07;100.00;100348.13;4980037;28;20035;-76
2022/11/03 02:22:34;;;;;;;10.40;5.63;;;;;;;8.12;100.00;100357.75;4999233;28;20049;-77
2022/11/03 02:25:15;;;;;;;10.68;5.10;;;;;;;8.10;100.00;100348.06;4983943;28;20057;-78
2022/11/03 02:27:41;;;;;;;10.75;5.88;;;;;;;7.80;100.00;100302.69;5003564;28;20108;-78
2022/11/03 02:30:07;;;;;;;10.13;5.22;;;;;;;8.02;100.00;100341.13;4985829;28;20274;-77
2022/11/03 02:32:57;;;;;;;11.43;5.97;;;;;;;7.94;100.00;100328.91;4986024;28;20022;-78
2022/11/03 02:35:47;;;;;;;8.93;4.60;;;;;;;8.03;100.00;100337.59;5002106;28;20049;-77
2022/11/03 02:38:16;;;;;;;9.13;4.78;;;;;;;7.89;100.00;100329.00;4985420;28;20459;-77
2022/11/03 02:40:47;;;;;;;8.50;4.90;;;;;;;7.81;100.00;100317.66;5003360;28;20449;-78
2022/11/03 02:43:15;;;;;;;6.55;4.53;;;;;;;7.66;100.00;100294.09;4986005;28;20030;-80
2022/11/03 02:45:45;;;;;;;8.50;5.50;;;;;;;7.75;100.00;100315.13;4983571;28;20037;-77
2022/11/03 02:48:14;;;;;;;8.80;5.10;;;;;;;7.80;100.00;100318.56;4984658;28;20111;-77
2022/11/03 02:50:40;;;;;;;9.60;4.65;;;;;;;7.63;100.00;100280.91;4985681;28;20057;-76
2022/11/03 02:53:08;;;;;;;6.88;4.60;;;;;;;7.62;100.00;100276.53;4987550;28;20477;-76
2022/11/03 02:55:52;;;;;;;7.43;4.70;;;;;;;7.76;100.00;100295.69;4987185;28;20026;-77
2022/11/03 02:58:40;;;;;;;8.35;4.28;;;;;;;7.78;100.00;100291.25;5005259;28;20057;-77
2022/11/03 03:01:17;;;;;;;9.18;4.20;;;;;;;7.83;100.00;100288.50;4988166;28;20482;-78
2022/11/03 03:04:05;;;;;;;8.70;4.57;;;;;;;7.68;100.00;100264.94;4993314;28;20042;-80
2022/11/03 03:06:37;;;;;;;7.35;4.82;;;;;;;7.64;100.00;100250.03;5023143;28;20042;-77
2022/11/03 03:09:08;;;;;;;8.02;4.85;;;;;;;7.72;100.00;100259.59;5005422;28;20105;-77
2022/11/03 03:11:35;;;;;;;8.48;5.05;;;;;;;7.55;100.00;100226.34;5005056;28;20034;-78
2022/11/03 03:14:14;;;;;;;7.72;4.80;;;;;;;7.70;100.00;100250.78;5005466;28;20386;-77
2022/11/03 03:17:11;;;;;;;7.32;4.57;;;;;;;7.83;100.00;100256.72;5003656;28;20037;-77
2022/11/03 03:20:06;;;;;;;7.38;4.30;;;;;;;7.76;100.00;100234.78;4964496;28;20050;-77
2022/11/03 03:22:46;;;;;;;7.90;5.10;;;;;;;7.84;100.00;100251.41;5006910;28;20037;-78
2022/11/03 03:25:31;;;;;;;10.15;4.95;;;;;;;7.85;100.00;100247.00;5006219;28;20446;-77
2022/11/03 03:28:06;;;;;;;9.65;4.35;;;;;;;7.56;100.00;100197.19;5006611;28;20470;-78
2022/11/03 03:30:34;;;;;;;7.53;4.88;;;;;;;7.83;100.00;100243.50;4989785;28;20028;-78
2022/11/03 03:33:02;;;;;;;6.88;4.38;;;;;;;7.62;100.00;100199.75;4988780;28;20026;-78
2022/11/03 03:35:31;;;;;;;7.63;4.97;;;;;;;7.84;100.00;100238.16;4986906;28;20125;-77
2022/11/03 03:38:01;;;;;;;8.00;4.57;;;;;;;7.68;100.00;100196.97;5002712;28;20014;-78
2022/11/03 03:40:35;;;;;;;8.68;4.88;;;;;;;7.75;100.00;100214.50;4984755;28;20030;-77
2022/11/03 03:43:02;;;;;;;;;;;;;;;7.81;100.00;100213.50;4970933;28;20097;-77
2022/11/03 03:45:30;;;;;;;8.13;4.45;;;;;;;7.73;100.00;100204.84;4984512;28;19913;-77
2022/11/03 03:47:56;;;;;;;9.25;4.35;;;;;;;7.67;100.00;100189.06;4968559;28;20027;-77
2022/11/03 03:50:26;;;;;;;6.43;4.43;;;;;;;7.72;100.00;100197.81;4968093;28;20034;-77
2022/11/03 03:53:03;;;;;;;7.88;4.20;;;;;;;7.79;100.00;100216.19;4966111;28;20081;-78
2022/11/03 03:55:39;;;;;;;6.80;4.70;;;;;;;7.67;100.00;100195.25;4982854;28;20026;-77
2022/11/03 03:58:05;;;;;;;6.82;4.25;;;;;;;7.51;100.00;100162.00;4965806;28;20069;-77
2022/11/03 04:00:31;;;;;;;6.25;4.22;;;;;;;7.50;100.00;100165.56;4982413;28;20031;-78
2022/11/03 04:03:00;;;;;;;5.80;4.22;;;;;;;7.65;100.00;100201.47;4984648;28;20089;-77
2022/11/03 04:05:26;;;;;;;6.82;4.18;;;;;;;7.75;100.00;100195.09;4986111;28;20061;-77
2022/11/03 04:07:51;;;;;;;6.78;4.43;;;;;;;7.76;100.00;100199.47;5000166;28;20030;-77
2022/11/03 04:10:21;;;;;;;7.18;4.45;;;;;;;7.78;100.00;100198.56;5001748;28;20034;-77
2022/11/03 04:23:45;;;;;;;9.13;4.97;;;;;;;7.65;100.00;100194.41;5004071;28;20087;-79
2022/11/03 04:26:16;;;;;;;9.70;4.63;;;;;;;7.60;100.00;100179.50;4983646;28;20026;-78
2022/11/03 04:28:42;;;;;;;8.90;4.75;;;;;;;7.60;100.00;100188.31;4982884;28;20417;-77
2022/11/03 04:31:13;;;;;;;7.07;4.65;;;;;;;7.64;100.00;100184.69;4983320;28;20026;-78
2022/11/03 04:33:40;;;;;;;7.60;4.45;;;;;;;7.60;100.00;100204.19;5001274;28;20055;-79
2022/11/03 04:36:19;;;;;;;7.13;4.75;;;;;;;7.67;100.00;100200.53;4982440;28;20030;-78
2022/11/03 04:38:45;;;;;;;9.20;4.40;;;;;;;7.59;100.00;100180.41;4983547;28;20026;-78
2022/11/03 04:41:20;;;;;;;7.00;4.28;;;;;;;7.45;100.00;100156.81;4999169;28;20045;-78
2022/11/03 04:43:46;;;;;;;6.28;4.03;;;;;;;7.63;100.00;100190.91;5001224;28;20022;-79
2022/11/03 04:46:14;;;;;;;8.85;4.72;;;;;;;7.61;100.00;100184.75;5000841;28;20027;-78
2022/11/03 04:48:40;;;;;;;9.38;4.80;;;;;;;7.54;100.00;100161.97;4981701;28;20022;-78
2022/11/03 04:51:15;;;;;;;12.40;5.22;;;;;;;7.56;100.00;100154.84;4982367;28;20508;-78
2022/11/03 04:53:47;;;;;;;9.40;5.28;;;;;;;7.73;100.00;100178.34;4999855;28;20084;-78
2022/11/03 04:56:15;;;;;;;7.28;4.43;;;;;;;7.69;100.00;100166.94;4998404;28;20030;-78
2022/11/03 04:58:41;;;;;;;7.13;4.65;;;;;;;7.71;100.00;100162.50;4989925;28;20018;-77
2022/11/03 05:01:11;;;;;;;10.15;4.75;;;;;;;7.59;100.00;100141.59;4982320;28;20053;-78
2022/11/03 05:03:38;;;;;;;16.92;5.53;;;;;;;7.55;100.00;100131.06;4988745;28;20050;-78
2022/11/03 05:06:14;;;;;;;8.10;4.63;;;;;;;7.77;100.00;100165.06;5019481;28;20036;-79
2022/11/03 05:08:41;;;;;;;8.20;4.40;;;;;;;7.79;100.00;100163.22;5000343;28;20030;-77
2022/11/03 05:11:23;;;;;;;11.65;4.47;;;;;;;7.73;100.00;100152.75;4995460;28;20042;-77
2022/11/03 05:13:49;;;;;;;8.02;4.05;;;;;;;7.82;100.00;100151.72;4986397;28;20022;-78
2022/11/03 05:16:16;;;;;;;9.60;4.70;;;;;;;7.73;100.00;100121.00;4999323;28;20030;-78
2022/11/03 05:18:45;;;;;;;9.27;4.63;;;;;;;7.78;100.00;100123.53;4983763;28;20026;-77
2022/11/03 05:21:14;;;;;;;8.30;4.43;;;;;;;7.65;100.00;100093.81;4988145;28;20033;-77
2022/11/03 05:23:44;;;;;;;12.20;5.40;;;;;;;7.72;100.00;100103.38;4988737;28;20041;-77
2022/11/03 05:26:19;;;;;;;13.90;4.57;;;;;;;7.72;100.00;100098.09;5004010;28;20442;-76
2022/11/03 05:29:07;;;;;;;7.20;4.60;;;;;;;7.90;100.00;100116.25;4986651;28;20046;-77
2022/11/03 05:31:35;;;;;;;7.90;4.95;;;;;;;7.80;100.00;100101.44;4994718;28;20043;-77
2022/11/03 05:34:14;;;;;;;14.10;5.13;;;;;;;7.86;100.00;100108.38;4987735;28;20045;-77
2022/11/03 05:36:40;;;;;;;8.30;4.65;;;;;;;7.96;100.00;100112.59;4986476;28;20023;-76
2022/11/03 05:39:34;;;;;;;9.90;5.10;;;;;;;7.85;100.00;100086.34;4986778;28;20504;-77
2022/11/03 05:41:59;;;;;;;8.60;4.70;;;;;;;7.93;100.00;100110.88;4965228;28;20043;-77
2022/11/03 05:44:35;;;;;;;10.45;5.07;;;;;;;7.97;100.00;100109.91;4966259;28;20062;-78
2022/11/03 05:47:07;;;;;;;8.13;5.10;;;;;;;7.95;100.00;100105.56;4985707;28;20473;-77
2022/11/03 05:49:33;;;;;;;6.95;5.05;;;;;;;7.93;100.00;100096.75;4967971;28;20027;-77
2022/11/03 05:51:59;;;;;;;13.38;5.22;;;;;;;7.95;100.00;100101.16;4983668;28;20027;-77
2022/11/03 05:54:31;;;;;;;10.98;4.80;;;;;;;7.72;100.00;100050.44;4968526;28;20038;-77
2022/11/03 05:56:57;;;;;;;17.75;5.65;;;;;;;7.78;100.00;100066.19;4967950;28;20027;-78
2022/11/03 05:59:25;;;;;;;10.55;4.45;;;;;;;7.79;100.00;100057.31;4978728;28;20045;-78
2022/11/03 06:01:54;;;;;;;10.45;5.43;;;;;;;7.85;100.00;100062.50;4986462;28;20054;-77
2022/11/03 06:04:19;;;;;;;9.00;4.97;;;;;;;7.98;100.00;100079.88;4967967;28;20111;-78
2022/11/03 06:06:54;;;;;;;10.45;5.72;;;;;;;7.99;100.00;100078.97;4983545;28;20046;-79
2022/11/03 06:09:22;;;;;;;9.55;4.93;;;;;;;8.02;100.00;100070.94;4988698;28;20121;-78
2022/11/03 06:11:50;;;;;;;9.32;4.93;;;;;;;7.83;100.00;100037.84;5005703;28;20049;-78
2022/11/03 06:14:21;;;;;;;8.57;5.38;;;;;;;7.84;100.00;100034.28;5013369;28;20034;-81
2022/11/03 06:16:50;;;;;;;7.75;5.50;;;;;;;7.95;100.00;100042.88;4984620;28;20251;-78
2022/11/03 06:19:27;;;;;;;9.23;4.78;;;;;;;8.10;100.00;100061.97;4982901;28;20027;-80
2022/11/03 06:21:57;;;;;;;8.27;4.60;;;;;;;7.98;100.00;100049.88;4970195;28;20043;-80
2022/11/03 06:24:28;;;;;;;9.18;5.60;;;;;;;7.96;100.00;100038.44;4983012;28;20037;-78
2022/11/03 06:26:55;;;;;;;7.38;4.88;;;;;;;8.06;100.00;100055.88;4986950;28;20422;-80
2022/11/03 06:29:21;;;;;;;6.93;4.72;;;;;;;7.89;100.00;100037.69;4986013;28;20035;-78
2022/11/03 06:31:49;;;;;;;9.98;5.25;;;;;;;8.09;100.00;100049.66;4981417;28;20142;-77
2022/11/03 06:34:40;;;;;;;7.22;4.32;;;;;;;8.01;100.00;100048.03;4988129;28;20030;-80
2022/11/03 06:37:19;;;;;;;7.43;3.83;;;;;;;8.00;100.00;100030.41;4982093;28;20082;-78
2022/11/03 06:39:45;;;;;;;10.20;4.90;;;;;;;7.87;100.00;100014.81;4983604;28;20031;-79
2022/11/03 06:42:15;;;;;;;8.25;4.53;;;;;;;8.16;100.00;100049.47;4988277;28;20057;-78
2022/11/03 06:44:46;;;;;;;6.95;4.38;;;;;;;8.20;100.00;100048.50;4988395;28;20038;-78
2022/11/03 06:47:21;;;;;;;7.15;4.57;;;;;;;8.33;100.00;100049.13;4972376;28;20454;-79
2022/11/03 06:49:47;;;;;;;9.38;4.55;;;;;;;8.27;100.00;100038.66;4988575;28;20038;-78
2022/11/03 06:52:30;;;;;;;7.13;4.40;;;;;;;8.42;100.00;100047.13;4990287;28;20026;-78
2022/11/03 06:55:14;;;;;;;9.60;4.87;;;;;;;8.48;100.00;100038.16;4973188;28;20095;-78
2022/11/03 06:57:43;;;;;;;9.25;6.15;;;;;;;8.07;100.00;99966.69;4989259;28;20037;-78
2022/11/03 07:00:15;;;;;;;10.70;5.68;;;;;;;8.67;100.00;100042.97;4975968;28;20042;-80
2022/11/03 07:03:22;;;;;;;9.02;5.97;;;;;;;8.76;100.00;100032.16;5010849;28;20136;-78
2022/11/03 07:05:47;;;;;;;8.50;5.40;;;;;;;8.78;100.00;100016.22;5006272;28;20048;-81
2022/11/03 07:08:28;;;;;;;11.20;6.65;;;;;;;9.02;100.00;100040.31;4983081;28;20052;-78
2022/11/03 07:11:06;;;;;;;9.68;5.82;;;;;;;9.06;100.00;100023.38;5006063;28;20034;-78
2022/11/03 07:13:33;;;;;;;9.82;6.05;;;;;;;9.13;100.00;100013.47;5006534;28;20030;-78
2022/11/03 07:16:02;;;;;;;10.65;5.80;;;;;;;9.30;100.00;100012.13;4990402;28;20098;-79
2022/11/03 07:18:38;;;;;;;10.32;6.63;;;;;;;9.55;100.00;100007.00;4987568;28;20026;-80
2022/11/03 07:21:33;;;;;;;15.32;7.95;;;;;;;9.58;100.00;100000.72;5006542;28;20080;-78
2022/11/03 07:24:00;;;;;;;15.80;7.88;;;;;;;9.69;100.00;99994.19;4974392;28;20023;-78
2022/11/03 07:26:27;;;;;;;12.00;6.47;;;;;;;9.53;100.00;99962.81;5004359;28;20023;-81
2022/11/03 07:28:53;;;;;;;9.93;6.28;;;;;;;9.61;100.00;99979.38;4989781;28;20060;-77
2022/11/03 07:31:24;;;;;;;10.38;6.07;;;;;;;9.72;100.00;99958.72;4989571;28;20030;-79
2022/11/03 07:33:56;;;;;;;10.23;6.18;;;;;;;9.98;100.00;99964.09;5002945;28;20042;-77
2022/11/03 07:36:23;;;;;;;11.18;6.82;;;;;;;10.37;100.00;99977.03;4988719;28;20040;-78
2022/11/03 07:38:51;;;;;;;9.57;6.55;;;;;;;10.31;100.00;99950.63;5007568;28;20042;-80
2022/11/03 07:41:26;;;;;;;8.73;5.47;;;;;;;10.65;100.00;99984.97;5005435;28;20030;-77
2022/11/03 07:43:57;;;;;;;9.65;5.55;;;;;;;10.71;100.00;99981.25;5007873;28;20032;-76
2022/11/03 07:46:24;;;;;;;10.50;6.20;;;;;;;10.62;100.00;99971.78;5006487;28;20026;-79
2022/11/03 07:48:56;;;;;;;9.65;5.90;;;;;;;10.78;100.00;99990.72;4976582;28;20053;-79
2022/11/03 07:51:29;;;;;;;8.82;5.22;;;;;;;10.89;100.00;99962.00;4977958;28;20117;-78
2022/11/03 07:54:20;;;;;;;8.37;5.23;;;;;;;11.29;100.00;99964.97;5004635;28;20023;-77
2022/11/03 07:56:53;;;;;;;9.02;5.43;;;;;;;12.03;100.00;99983.47;5004807;28;20094;-80
2022/11/03 07:59:36;;;;;;;;;;;;;;;12.55;100.00;99968.00;4987567;28;20481;-80
2022/11/03 08:02:13;;;;;;;8.70;5.70;;;;;;;13.05;100.00;99969.44;5006061;28;20004;-79
2022/11/03 08:04:38;;;;;;;8.68;5.22;;;;;;;13.55;98.28;99929.78;5004952;28;20764;-80
2022/11/03 08:07:04;;;;;;;8.85;5.30;;;;;;;14.09;94.56;99907.59;4986449;28;20038;-77
2022/11/03 08:09:29;;;;;;;8.70;5.20;;;;;;;14.92;89.22;99941.78;4984682;28;20037;-78
2022/11/03 08:11:55;;;;;;;8.80;5.20;;;;;;;15.30;84.37;99921.00;4985986;28;20026;-78
2022/11/03 08:14:20;;;;;;;8.38;4.55;;;;;;;15.41;81.26;99922.19;4987195;28;20030;-76
2022/11/03 08:16:46;;;;;;;10.52;5.78;;;;;;;15.92;79.97;99901.50;4975826;28;20109;-78
2022/11/03 08:19:12;;;;;;;9.38;6.10;;;;;;;16.53;75.98;99921.25;5003951;28;20054;-77
2022/11/03 08:21:37;;;;;;;7.50;4.85;;;;;;;16.39;73.17;99902.38;5002611;28;20702;-80
2022/11/03 08:24:04;;;;;;;9.65;5.95;;;;;;;16.35;72.56;99935.69;4973479;28;20026;-79
2022/11/03 08:26:29;;;;;;;8.73;5.50;;;;;;;16.02;73.21;99908.09;5003334;28;20040;-78
2022/11/03 08:28:55;;;;;;;7.45;4.97;;;;;;;15.71;74.47;99899.09;5003772;28;20031;-78
2022/11/03 08:31:20;;;;;;;9.65;5.85;;;;;;;15.85;74.66;99900.97;5002487;28;20062;-78
2022/11/03 08:33:46;;;;;;;9.05;4.97;;;;;;;15.79;73.99;99910.25;4978410;28;20034;-79
2022/11/03 08:36:11;;;;;;;10.70;6.22;;;;;;;15.68;74.90;99903.75;4976454;28;20030;-79
2022/11/03 08:38:37;;;;;;;8.55;5.70;;;;;;;15.80;75.66;99920.00;4976529;28;20025;-79
2022/11/03 08:41:03;;;;;;;9.43;5.03;;;;;;;15.89;75.70;99896.31;4987143;28;20026;-77
2022/11/03 08:43:28;;;;;;;6.05;4.00;;;;;;;15.95;75.17;99882.56;5003809;28;20022;-79
2022/11/03 08:45:55;;;;;;;5.22;3.63;;;;;;;16.21;74.99;99884.63;4974087;28;20034;-77
2022/11/03 08:48:27;;;;;;;6.20;3.97;;;;;;;16.44;73.37;99892.22;5002369;28;20022;-80
2022/11/03 08:50:54;;;;;;;7.60;4.38;;;;;;;16.63;72.01;99912.56;4974707;28;20054;-78
2022/11/03 08:53:20;;;;;;;7.85;4.13;;;;;;;16.77;70.84;99898.34;5001748;28;20141;-79
2022/11/03 08:55:46;;;;;;;6.35;4.43;;;;;;;16.69;70.33;99885.34;5003247;28;20030;-78
2022/11/03 08:58:11;;;;;;;10.18;4.20;;;;;;;16.31;70.02;99883.16;4982445;28;20034;-79
2022/11/03 09:00:37;;;;;;;8.55;4.80;;;;;;;15.99;71.91;99881.44;5002680;28;20085;-78
2022/11/03 09:03:03;;;;;;;11.02;6.28;;;;;;;15.47;73.72;99865.56;4981674;28;20560;-78
2022/11/03 09:05:29;;;;;;;11.77;7.28;;;;;;;15.16;75.00;99888.69;4988327;28;20057;-77
2022/11/03 09:07:54;;;;;;;14.07;7.50;;;;;;;14.95;77.75;99880.00;4988684;28;20077;-76
2022/11/03 09:10:19;;;;;;;9.43;5.43;;;;;;;14.68;79.45;99854.66;4979718;28;20026;-78
2022/11/03 09:12:45;;;;;;;9.80;4.82;;;;;;;14.63;81.43;99867.41;4985945;28;20093;-77
2022/11/03 09:15:11;;;;;;;9.88;4.63;;;;;;;14.37;82.50;99851.81;4984147;28;20382;-77
2022/11/03 09:17:37;;;;;;;10.85;3.67;;;;;;;14.28;83.90;99853.13;4974641;28;20025;-78
2022/11/03 09:20:03;;;;;;;9.82;4.18;;;;;;;14.20;83.95;99846.41;4995548;28;20030;-77
2022/11/03 09:22:29;;;;;;;8.98;4.57;;;;;;;14.17;85.95;99847.44;4989959;28;20031;-79
2022/11/03 09:24:54;;;;;;;9.38;4.20;;;;;;;14.32;85.66;99856.53;4991885;28;20034;-79
2022/11/03 09:27:20;;;;;;;9.52;4.22;;;;;;;14.34;84.59;99846.63;4967224;28;20040;-80
2022/11/03 09:29:45;;;;;;;7.15;4.45;;;;;;;14.65;84.63;99844.09;4975067;28;20497;-79
2022/11/03 09:32:11;;;;;;;10.38;5.13;;;;;;;15.42;84.19;99853.38;4992533;28;20034;-76
2022/11/03 09:34:36;;;;;;;10.13;5.70;;;;;;;15.92;79.76;99850.53;4973655;28;20709;-77
2022/11/03 09:37:02;;;;;;;8.82;4.85;;;;;;;16.53;78.98;99811.16;4968416;28;20046;-77
2022/11/03 09:39:27;;;;;;;8.13;5.10;;;;;;;17.41;73.75;99815.47;4996180;28;20030;-76
2022/11/03 09:41:54;;;;;;;11.00;4.85;;;;;;;17.98;68.57;99827.88;4993279;28;20046;-76
2022/11/03 09:44:20;;;;;;;7.80;4.07;;;;;;;18.16;66.36;99812.31;4966101;28;20466;-77
2022/11/03 09:46:46;;;;;;;7.22;4.18;;;;;;;17.90;65.77;99818.56;4970044;28;20018;-78
2022/11/03 09:49:14;;;;;;;6.38;3.83;;;;;;;17.96;66.86;99827.09;4969528;28;20030;-77
2022/11/03 09:51:41;;;;;;;10.20;4.05;;;;;;;17.85;68.08;99815.31;4963296;28;20181;-78
2022/11/03 09:54:13;;;;;;;8.23;4.45;;;;;;;17.46;68.83;99797.22;4987371;28;20038;-78
2022/11/03 09:56:38;;;;;;;13.88;4.35;;;;;;;17.16;69.61;99815.28;4990667;28;20057;-77
2022/11/03 09:59:16;;;;;;;8.57;4.30;;;;;;;16.95;71.65;99789.75;4970001;28;20081;-77
2022/11/03 10:01:44;;;;;;;9.23;4.03;;;;;;;16.95;72.01;99787.06;4962490;28;20034;-78
2022/11/03 10:04:11;;;;;;;9.60;4.78;;;;;;;16.97;72.45;99790.50;4967850;28;20030;-76
2022/11/03 10:06:38;;;;;;;6.30;3.45;;;;;;;17.00;73.12;99798.38;4968852;28;20038;-77
2022/11/03 10:09:06;;;;;;;5.75;3.25;;;;;;;17.18;74.04;99764.97;4987932;28;20038;-77
2022/11/03 10:11:33;;;;;;;10.10;5.38;;;;;;;17.87;71.42;99778.41;4971945;28;20032;-77
2022/11/03 10:13:59;;;;;;;10.05;3.10;;;;;;;18.80;69.37;99763.00;4967071;28;20359;-79
2022/11/03 10:16:25;;;;;;;9.43;3.70;;;;;;;19.43;65.00;99753.94;4972932;28;20033;-75
2022/11/03 10:18:52;;;;;;;8.32;3.22;;;;;;;20.10;62.44;99782.19;4965909;28;20619;-78
2022/11/03 10:21:30;;;;;;;7.18;2.67;;;;;;;20.07;60.80;99758.13;4963722;28;20526;-78
2022/11/03 10:23:55;;;;;;;8.15;3.05;;;;;;;20.22;59.81;99756.13;4993109;28;20030;-76
2022/11/03 10:26:21;;;;;;;5.13;2.50;;;;;;;19.93;60.08;99755.59;4984421;28;20022;-78
2022/11/03 10:29:08;;;;;;;6.78;2.70;;;;;;;19.42;61.36;99745.97;4986190;28;20056;-77
2022/11/03 10:31:38;;;;;;;5.78;2.35;;;;;;;19.09;62.18;99742.97;4988010;28;20026;-79
2022/11/03 10:34:22;;;;;;;6.43;2.45;;;;;;;18.70;63.42;99746.63;4988030;28;20030;-75
2022/11/03 10:36:47;;;;;;;;;;;;;;;18.54;66.44;99734.34;4986974;28;20065;-78
2022/11/03 10:39:31;;;;;;;4.47;2.55;;;;;;;18.26;66.91;99714.69;4989021;28;19953;-77
2022/11/03 10:41:58;;;;;;;6.35;3.00;;;;;;;18.21;67.79;99710.56;4989557;28;20026;-77
2022/11/03 10:44:28;;;;;;;6.05;2.80;;;;;;;17.84;69.53;99712.19;4987435;28;20046;-76
2022/11/03 10:46:55;;;;;;;6.13;2.70;;;;;;;17.96;69.45;99715.88;4992252;28;20034;-76
2022/11/03 10:49:21;;;;;;;4.28;2.33;;;;;;;17.72;69.53;99696.00;4991239;28;20026;-77
2022/11/03 10:51:49;;;;;;;5.10;2.80;;;;;;;17.45;69.35;99661.06;4992794;28;20030;-77
2022/11/03 10:54:17;;;;;;;8.05;2.95;;;;;;;17.33;69.54;99679.78;4993694;28;20034;-78
2022/11/03 10:56:44;;;;;;;8.25;2.92;;;;;;;17.00;71.11;99653.28;4993260;28;20030;-77
2022/11/03 10:59:23;;;;;;;7.13;3.55;;;;;;;17.02;72.08;99681.75;4979344;28;20026;-79
2022/11/03 11:01:51;;;;;;;9.65;3.83;;;;;;;16.81;72.68;99680.44;4976692;28;20084;-79
2022/11/03 11:04:19;;;;;;;8.07;3.28;;;;;;;16.76;74.20;99676.31;4972747;28;20034;-76
2022/11/03 11:06:45;;;;;;;8.02;3.90;;;;;;;16.82;74.62;99670.53;4977684;28;20841;-76
2022/11/03 11:09:14;;;;;;;8.65;3.15;;;;;;;16.59;73.89;99649.69;4967326;28;20829;-77
2022/11/03 11:11:58;;;;;;;8.27;3.42;;;;;;;16.76;74.89;99661.06;4995782;28;20027;-76
2022/11/03 11:14:27;;;;;;;11.07;3.42;;;;;;;16.85;75.78;99656.94;4968738;28;20030;-79
2022/11/03 11:16:57;;;;;;;8.98;3.22;;;;;;;16.81;75.25;99658.09;4974992;28;20045;-76
2022/11/03 11:19:25;;;;;;;7.50;2.85;;;;;;;16.87;75.55;99655.00;4973416;28;20046;-76
2022/11/03 11:21:53;;;;;;;7.18;3.05;;;;;;;16.72;74.83;99654.16;4997386;28;20109;-77
2022/11/03 11:24:43;;;;;;;5.72;2.58;;;;;;;16.74;75.88;99646.00;4998291;28;20057;-79
2022/11/03 11:27:41;;;;;;;7.15;2.95;;;;;;;16.81;76.66;99637.47;4977635;28;20889;-79
2022/11/03 11:30:29;;;;;;;6.13;3.08;;;;;;;16.82;75.29;99630.25;4960674;28;20069;-77
2022/11/03 11:32:59;;;;;;;7.97;3.45;;;;;;;16.66;76.45;99626.81;4999418;28;20098;-78
2022/11/03 11:35:25;;;;;;;7.07;2.83;;;;;;;16.61;76.42;99607.44;5000780;28;20068;-78
2022/11/03 11:37:51;;;;;;;10.02;3.13;;;;;;;16.34;77.66;99610.00;4971923;28;20027;-76
2022/11/03 11:40:22;;;;;;;7.63;3.13;;;;;;;16.22;77.70;99601.88;4983263;28;20039;-77
2022/11/03 11:43:10;;;;;;;6.55;3.10;;;;;;;16.16;78.78;99600.41;4975975;28;20034;-76
2022/11/03 11:46:13;;;;;;;7.20;2.92;;;;;;;16.08;79.46;99583.94;4970977;28;20033;-75
2022/11/03 11:48:39;;;;;;;6.32;3.13;;;;;;;16.10;80.46;99582.03;4995164;28;20230;-77
2022/11/03 11:51:10;;;;;;;7.78;3.58;;;;;;;16.00;79.55;99571.94;4996035;28;20279;-76
2022/11/03 11:53:43;;;;;;;5.75;3.00;;;;;;;16.13;80.27;99575.63;4991429;28;20058;-77
2022/11/03 11:56:12;;;;;;;7.83;3.40;;;;;;;16.16;78.70;99562.00;4990216;28;20030;-77